Upstream stations:
Downstream station:
SHEF ID: HRHO2 North Canadian River near Harrah
STATION TYPE:
Regulating: Stage = 15.00, Flow = 9137
STAGE RIV-FLOW WTR-TEMP DIS-OXY PH CONDUCT BAT-LOAD
ft cfs F mg/l su umho/cm volt
Ccp-Rev Ccp-Rev Ccp-Rev Ccp-Rev Ccp-Rev Ccp-Rev Ccp-Rev
(US/Central)
03/12 00:00 3.39 162 41.07 12.21 8.62 853 12.49
03/12 01:00 3.38 160 40.44 11.98 8.56 853 12.49
03/12 02:00 3.37 158 39.85 11.85 8.51 853 12.41
03/12 03:00 3.42 168 39.25 11.82 8.47 854 12.41
03/12 04:00 3.42 168 38.73 11.74 8.43 860 12.33
03/12 05:00 3.43 170 38.21 11.71 8.41 865 12.33
03/12 06:00 3.45 174 37.72 11.71 8.38 869 12.25
03/12 07:00 3.46 176 37.27 11.71 8.37 875 12.25
03/12 08:00 3.34 152 37.22 11.96 8.39 882 12.25
03/12 09:00 3.35 154 38.12 12.61 8.43 887 12.65
03/12 10:00 3.36 156 40.10 12.98 8.45 891 13.68
03/12 11:00 3.36 156 42.75 12.97 8.43 892 13.84
03/12 12:00 3.34 152 45.90 13.22 8.42 891 13.68
03/12 13:00 3.39 162 48.78 13.14 8.41 884 13.44
03/12 14:00 3.37 158 51.46 12.99 8.41 874 13.29
03/12 15:00 3.42 168 53.60 12.99 8.44 855 13.21
03/12 16:00 3.50 185 54.88 13.01 8.49 ---- 13.13
03/12 17:00 3.58 203 55.04 13.12 8.55 865 13.05
03/12 18:00 3.64 216 54.12 13.01 8.55 855 13.05
03/12 19:00 3.66 221 52.95 12.64 8.52 854 12.89
03/12 20:00 3.68 226 51.94 12.12 8.48 853 12.65
03/12 21:00 3.69 228 51.01 11.64 8.43 855 12.65
03/12 22:00 3.69 228 50.20 11.29 8.40 862 12.57
03/12 23:00 3.68 226 49.32 11.10 8.42 876 12.57